createdAt,value
2022-12-25T00:02:18.251Z,83.09
2022-12-25T00:04:44.824Z,83.80
2022-12-25T00:07:11.783Z,82.90
2022-12-25T00:09:38.327Z,83.03
2022-12-25T00:12:05.010Z,83.34
2022-12-25T00:14:31.659Z,82.90
2022-12-25T00:16:58.398Z,83.31
2022-12-25T00:19:24.941Z,83.37
2022-12-25T00:21:51.546Z,83.24
2022-12-25T00:24:18.091Z,83.00
2022-12-25T00:26:44.693Z,83.16
2022-12-25T00:29:12.900Z,83.58
2022-12-25T00:31:39.615Z,83.04
2022-12-25T00:34:06.191Z,83.47
2022-12-25T00:36:36.339Z,83.21
2022-12-25T00:39:07.980Z,83.61
2022-12-25T00:41:52.848Z,83.63
2022-12-25T00:44:19.492Z,83.21
2022-12-25T00:46:46.076Z,83.58
2022-12-25T00:49:13.534Z,83.82
2022-12-25T00:51:40.400Z,83.86
2022-12-25T00:54:07.347Z,83.48
2022-12-25T00:56:34.551Z,83.38
2022-12-25T00:59:01.119Z,83.35
2022-12-25T01:01:27.979Z,83.97
2022-12-25T01:03:55.554Z,83.49
2022-12-25T01:06:22.130Z,84.25
2022-12-25T01:09:07.072Z,83.68
2022-12-25T01:11:33.713Z,83.40
2022-12-25T01:14:00.348Z,83.84
2022-12-25T01:16:27.630Z,84.16
2022-12-25T01:18:54.392Z,84.23
2022-12-25T01:21:21.879Z,83.74
2022-12-25T01:23:50.315Z,83.81
2022-12-25T01:26:18.108Z,84.10
2022-12-25T01:28:44.830Z,84.10
2022-12-25T01:31:14.761Z,83.39
2022-12-25T01:33:43.303Z,83.67
2022-12-25T01:36:21.824Z,83.74
2022-12-25T01:38:49.422Z,83.91
2022-12-25T01:41:18.654Z,84.17
2022-12-25T01:44:01.592Z,83.59
2022-12-25T01:46:29.437Z,84.07
2022-12-25T01:49:05.315Z,83.44
2022-12-25T01:51:40.208Z,83.59
2022-12-25T01:54:12.674Z,84.11
2022-12-25T01:56:41.037Z,83.78
2022-12-25T01:59:08.992Z,83.94
2022-12-25T02:01:35.994Z,84.52
2022-12-25T02:04:13.237Z,84.49
2022-12-25T02:06:39.857Z,84.17
2022-12-25T02:09:06.437Z,84.15
2022-12-25T02:11:51.748Z,84.70
2022-12-25T02:14:18.401Z,84.00
2022-12-25T02:16:57.545Z,83.97
2022-12-25T02:19:34.189Z,84.68
2022-12-25T02:22:19.016Z,84.21
2022-12-25T02:25:05.153Z,83.95
2022-12-25T02:28:13.767Z,84.69
2022-12-25T02:30:49.543Z,84.64
2022-12-25T02:33:44.223Z,85.06
2022-12-25T02:36:16.993Z,84.40
2022-12-25T02:39:06.351Z,84.78
2022-12-25T02:41:37.284Z,84.55
2022-12-25T02:44:27.120Z,84.30
2022-12-25T02:47:12.505Z,84.28
2022-12-25T02:49:59.588Z,84.42
2022-12-25T02:52:48.618Z,84.80
2022-12-25T02:55:47.277Z,83.98
2022-12-25T02:58:35.265Z,84.13
2022-12-25T03:01:28.868Z,84.86
2022-12-25T03:04:18.851Z,84.46
2022-12-25T03:06:58.510Z,84.76
2022-12-25T03:09:47.408Z,84.76
2022-12-25T03:12:22.074Z,84.83
2022-12-25T03:15:07.524Z,84.77
2022-12-25T03:17:34.942Z,84.54
2022-12-25T03:20:20.319Z,84.36
2022-12-25T03:23:06.528Z,84.00
2022-12-25T03:25:51.847Z,83.98
2022-12-25T03:28:18.630Z,84.17
2022-12-25T03:31:13.218Z,84.57
2022-12-25T03:34:02.500Z,85.07
2022-12-25T03:37:13.522Z,84.58
2022-12-25T03:39:54.911Z,85.21
2022-12-25T03:43:04.131Z,84.64
2022-12-25T03:46:01.826Z,85.35
2022-12-25T03:48:51.695Z,85.46
2022-12-25T03:51:44.747Z,85.49
2022-12-25T03:54:31.732Z,86.00
2022-12-25T03:57:17.173Z,86.09
2022-12-25T04:00:02.448Z,86.01
2022-12-25T04:02:48.029Z,86.48
2022-12-25T04:05:33.537Z,86.06
2022-12-25T04:08:18.760Z,86.61
2022-12-25T04:11:03.925Z,86.35
2022-12-25T04:13:48.934Z,86.49
2022-12-25T04:16:33.871Z,86.88
2022-12-25T04:19:18.816Z,86.51
2022-12-25T04:22:03.685Z,86.54
2022-12-25T04:24:48.595Z,86.43
2022-12-25T04:27:33.508Z,86.80
2022-12-25T04:30:18.498Z,86.52
2022-12-25T04:33:03.532Z,86.92
2022-12-25T04:35:48.354Z,87.11
2022-12-25T04:38:15.020Z,86.61
2022-12-25T04:40:41.574Z,86.97
2022-12-25T04:43:08.166Z,87.12
2022-12-25T04:45:34.859Z,87.08
2022-12-25T04:48:01.478Z,86.62
2022-12-25T04:50:28.020Z,86.42
2022-12-25T04:52:54.665Z,86.32
2022-12-25T04:55:21.296Z,86.60
2022-12-25T04:57:47.897Z,86.84
2022-12-25T05:00:14.801Z,87.19
2022-12-25T05:02:41.489Z,86.83
2022-12-25T05:05:08.392Z,87.04
2022-12-25T05:07:34.966Z,86.47
2022-12-25T05:10:01.544Z,86.64
2022-12-25T05:12:28.096Z,86.60
2022-12-25T05:14:54.670Z,87.07
2022-12-25T05:17:21.243Z,86.81
2022-12-25T05:19:47.811Z,86.55
2022-12-25T05:22:14.433Z,86.86
2022-12-25T05:24:41.181Z,86.60
2022-12-25T05:27:07.743Z,87.00
2022-12-25T05:29:34.398Z,86.74
2022-12-25T05:32:01.110Z,86.69
2022-12-25T05:34:27.729Z,86.87
2022-12-25T05:36:54.475Z,86.62
2022-12-25T05:39:21.011Z,86.91
2022-12-25T05:41:47.693Z,86.72
2022-12-25T05:44:14.464Z,87.04
2022-12-25T05:46:41.072Z,86.55
2022-12-25T05:49:07.725Z,87.30
2022-12-25T05:51:34.321Z,86.54
2022-12-25T05:54:00.967Z,86.92
2022-12-25T05:56:27.845Z,87.43
2022-12-25T05:58:54.451Z,87.19
2022-12-25T06:01:24.485Z,87.20
2022-12-25T06:03:51.545Z,86.14
2022-12-25T06:06:18.592Z,83.51
2022-12-25T06:08:45.730Z,82.40
2022-12-25T06:11:14.187Z,81.29
2022-12-25T06:13:41.175Z,80.76
2022-12-25T06:16:10.701Z,79.83
2022-12-25T06:18:42.414Z,80.03
2022-12-25T06:21:11.081Z,80.03
2022-12-25T06:23:39.051Z,78.76
2022-12-25T06:26:08.206Z,78.45
2022-12-25T06:28:34.791Z,78.02
2022-12-25T06:31:13.439Z,78.11
2022-12-25T06:33:40.219Z,77.43
2022-12-25T06:36:08.222Z,77.67
2022-12-25T06:38:35.265Z,76.78
2022-12-25T06:41:07.307Z,76.89
2022-12-25T06:43:33.914Z,77.67
2022-12-25T06:46:09.797Z,76.40
2022-12-25T06:48:37.998Z,76.51
2022-12-25T06:51:06.056Z,75.69
2022-12-25T06:53:39.776Z,75.84
2022-12-25T06:56:09.724Z,76.32
2022-12-25T06:58:36.318Z,75.45
2022-12-25T07:01:15.195Z,75.28
2022-12-25T07:03:45.283Z,75.48
2022-12-25T07:06:12.160Z,74.78
2022-12-25T07:08:39.053Z,74.79
2022-12-25T07:11:06.922Z,75.30
2022-12-25T07:13:33.536Z,75.62
2022-12-25T07:16:02.805Z,75.97
2022-12-25T07:18:30.211Z,76.91
2022-12-25T07:20:59.388Z,77.91
2022-12-25T07:23:26.981Z,78.76
2022-12-25T07:25:57.876Z,78.67
2022-12-25T07:28:25.192Z,79.43
2022-12-25T07:30:51.954Z,79.56
2022-12-25T07:33:19.056Z,80.46
2022-12-25T07:35:46.245Z,81.03
2022-12-25T07:38:12.813Z,80.69
2022-12-25T07:40:39.343Z,80.80
2022-12-25T07:43:06.019Z,81.37
2022-12-25T07:45:32.950Z,81.66
2022-12-25T07:48:04.947Z,81.39
2022-12-25T07:50:32.835Z,81.62
2022-12-25T07:52:59.482Z,82.02
2022-12-25T07:55:26.181Z,82.28
2022-12-25T07:57:53.310Z,82.32
2022-12-25T08:00:20.391Z,81.86
2022-12-25T08:02:50.343Z,82.02
2022-12-25T08:05:17.194Z,82.37
2022-12-25T08:07:43.837Z,82.87
2022-12-25T08:10:10.804Z,83.12
2022-12-25T08:12:37.389Z,82.68
2022-12-25T08:15:04.483Z,83.34
2022-12-25T08:17:31.039Z,82.85
2022-12-25T08:19:57.591Z,83.12
2022-12-25T08:22:24.137Z,83.26
2022-12-25T08:24:50.794Z,82.89
2022-12-25T08:27:17.445Z,83.47
2022-12-25T08:29:45.014Z,83.36
2022-12-25T08:32:11.702Z,82.92
2022-12-25T08:34:38.779Z,84.01
2022-12-25T08:37:05.368Z,83.13
2022-12-25T08:39:31.970Z,84.04
2022-12-25T08:41:58.653Z,83.80
2022-12-25T08:44:25.225Z,83.74
2022-12-25T08:46:51.796Z,83.09
2022-12-25T08:49:18.568Z,83.03
2022-12-25T08:51:45.783Z,83.49
2022-12-25T08:54:12.313Z,83.23
2022-12-25T08:56:38.892Z,82.92
2022-12-25T08:59:05.475Z,83.69
2022-12-25T09:01:32.291Z,83.35
2022-12-25T09:03:59.038Z,83.69
2022-12-25T09:06:25.634Z,83.51
2022-12-25T09:08:53.440Z,83.77
2022-12-25T09:11:21.110Z,83.42
2022-12-25T09:13:48.871Z,83.19
2022-12-25T09:16:19.283Z,83.43
2022-12-25T09:18:46.117Z,83.06
2022-12-25T09:21:15.066Z,83.39
2022-12-25T09:23:42.320Z,83.77
2022-12-25T09:26:12.429Z,83.81
2022-12-25T09:28:39.146Z,83.23
2022-12-25T09:31:06.015Z,83.72
2022-12-25T09:33:33.005Z,82.91
2022-12-25T09:36:07.098Z,82.96
2022-12-25T09:38:34.927Z,83.68
2022-12-25T09:41:20.884Z,83.89
2022-12-25T09:43:53.040Z,83.56
2022-12-25T09:46:23.573Z,83.55
2022-12-25T09:49:05.330Z,83.57
2022-12-25T09:51:35.844Z,83.67
2022-12-25T09:54:14.448Z,83.31
2022-12-25T09:56:41.101Z,83.61
2022-12-25T09:59:23.295Z,83.52
2022-12-25T10:01:49.915Z,83.61
2022-12-25T10:04:42.694Z,83.36
2022-12-25T10:07:28.658Z,83.33
2022-12-25T10:10:26.183Z,83.91
2022-12-25T10:12:55.872Z,83.38
2022-12-25T10:15:25.305Z,83.40
2022-12-25T10:18:13.279Z,84.17
2022-12-25T10:20:45.719Z,83.32
2022-12-25T10:23:18.213Z,83.90
2022-12-25T10:25:45.218Z,83.96
2022-12-25T10:28:21.938Z,83.72
2022-12-25T10:30:50.512Z,83.53
2022-12-25T10:33:17.562Z,84.21
2022-12-25T10:35:45.349Z,84.41
2022-12-25T10:38:18.787Z,83.71
2022-12-25T10:41:00.391Z,83.82
2022-12-25T10:43:51.555Z,83.85
2022-12-25T10:46:19.915Z,84.42
2022-12-25T10:48:49.391Z,84.33
2022-12-25T10:51:34.189Z,84.35
2022-12-25T10:54:18.410Z,84.66
2022-12-25T10:57:01.137Z,84.31
2022-12-25T10:59:30.659Z,84.12
2022-12-25T11:02:05.738Z,84.17
2022-12-25T11:04:35.340Z,83.49
2022-12-25T11:07:06.781Z,83.24
2022-12-25T11:09:33.876Z,83.59
2022-12-25T11:12:01.285Z,82.45
2022-12-25T11:14:29.192Z,82.74
2022-12-25T11:16:56.130Z,83.07
2022-12-25T11:19:30.030Z,82.52
2022-12-25T11:21:59.200Z,83.39
2022-12-25T11:24:28.800Z,83.18
2022-12-25T11:27:01.084Z,82.95
2022-12-25T11:29:36.504Z,82.88
2022-12-25T11:32:04.994Z,82.43
2022-12-25T11:34:36.192Z,82.46
2022-12-25T11:37:04.646Z,82.47
2022-12-25T11:39:34.907Z,81.88
2022-12-25T11:42:29.691Z,82.15
2022-12-25T11:45:25.486Z,82.70
2022-12-25T11:47:57.026Z,82.99
2022-12-25T11:50:37.860Z,82.13
2022-12-25T11:53:31.771Z,82.85
2022-12-25T11:56:22.356Z,82.91
2022-12-25T11:58:52.423Z,82.28
2022-12-25T12:01:35.068Z,82.22
2022-12-25T12:04:03.678Z,81.72
2022-12-25T12:06:48.500Z,81.55
2022-12-25T12:09:30.181Z,81.64
2022-12-25T12:12:23.529Z,81.11
2022-12-25T12:15:07.609Z,81.55
2022-12-25T12:17:34.389Z,81.30
2022-12-25T12:20:31.165Z,81.48
2022-12-25T12:22:59.417Z,81.23
2022-12-25T12:25:27.677Z,80.48
2022-12-25T12:28:04.861Z,80.86
2022-12-25T12:30:35.845Z,80.19
2022-12-25T12:33:06.342Z,79.93
2022-12-25T12:35:37.087Z,80.30
2022-12-25T12:38:16.810Z,80.18
2022-12-25T12:40:56.511Z,79.97
2022-12-25T12:43:34.826Z,79.57
2022-12-25T12:46:27.968Z,79.14
2022-12-25T12:49:32.794Z,78.94
2022-12-25T12:52:21.988Z,78.08
2022-12-25T12:55:05.550Z,78.05
2022-12-25T12:57:39.797Z,78.13
2022-12-25T13:00:10.811Z,78.47
2022-12-25T13:03:12.129Z,78.47
2022-12-25T13:06:03.884Z,78.36
2022-12-25T13:08:42.716Z,78.17
2022-12-25T13:11:26.036Z,78.20
2022-12-25T13:13:55.153Z,77.61
2022-12-25T13:16:24.528Z,77.64
2022-12-25T13:18:53.451Z,78.06
2022-12-25T13:21:26.677Z,77.65
2022-12-25T13:24:04.423Z,77.58
2022-12-25T13:26:31.320Z,78.16
2022-12-25T13:28:58.073Z,77.82
2022-12-25T13:31:31.762Z,77.89
2022-12-25T13:34:04.976Z,77.78
2022-12-25T13:36:40.551Z,77.66
2022-12-25T13:39:09.527Z,77.81
2022-12-25T13:42:05.722Z,77.21
2022-12-25T13:44:49.181Z,77.05
2022-12-25T13:47:37.594Z,77.33
2022-12-25T13:50:25.804Z,77.28
2022-12-25T13:52:53.607Z,76.95
2022-12-25T13:55:28.488Z,76.91
2022-12-25T13:58:01.357Z,76.77
2022-12-25T14:00:34.011Z,76.81
2022-12-25T14:03:01.075Z,76.97
2022-12-25T14:05:37.970Z,77.27
2022-12-25T14:08:24.278Z,77.39
2022-12-25T14:10:52.480Z,77.70
2022-12-25T14:13:23.510Z,78.05
2022-12-25T14:15:51.000Z,78.32
2022-12-25T14:18:19.435Z,79.11
2022-12-25T14:21:00.101Z,79.18
2022-12-25T14:23:31.548Z,79.78
2022-12-25T14:25:58.218Z,79.55
2022-12-25T14:28:32.483Z,80.20
2022-12-25T14:31:00.692Z,80.24
2022-12-25T14:33:31.586Z,80.49
2022-12-25T14:35:59.097Z,80.34
2022-12-25T14:38:39.583Z,80.54
2022-12-25T14:41:18.682Z,81.03
2022-12-25T14:43:55.479Z,80.36
2022-12-25T14:46:28.304Z,80.50
2022-12-25T14:49:04.203Z,80.76
2022-12-25T14:51:32.741Z,80.46
2022-12-25T14:54:03.201Z,80.33
2022-12-25T14:56:39.173Z,80.08
2022-12-25T14:59:10.178Z,79.77
2022-12-25T15:01:40.850Z,79.73
2022-12-25T15:04:14.830Z,79.56
2022-12-25T15:07:07.201Z,79.18
2022-12-25T15:09:34.019Z,79.27
2022-12-25T15:12:00.627Z,79.96
2022-12-25T15:14:27.555Z,79.55
2022-12-25T15:16:57.666Z,79.25
2022-12-25T15:19:37.265Z,78.92
2022-12-25T15:22:05.213Z,78.96
2022-12-25T15:24:31.784Z,78.95
2022-12-25T15:27:00.478Z,79.51
2022-12-25T15:32:17.938Z,79.72
2022-12-25T15:34:47.118Z,79.21
2022-12-25T15:37:14.326Z,80.19
2022-12-25T15:39:41.275Z,80.45
2022-12-25T15:42:23.069Z,80.27
2022-12-25T15:44:50.129Z,80.34
2022-12-25T15:47:19.990Z,80.21
2022-12-25T15:49:46.658Z,80.00
2022-12-25T15:52:15.642Z,80.34
2022-12-25T15:54:42.427Z,81.17
2022-12-25T15:57:21.046Z,81.01
2022-12-25T15:59:47.639Z,81.11
2022-12-25T16:02:20.633Z,80.63
2022-12-25T16:04:47.861Z,81.24
2022-12-25T16:07:17.832Z,81.03
2022-12-25T16:09:45.053Z,80.06
2022-12-25T16:12:12.299Z,80.29
2022-12-25T16:14:38.873Z,79.83
2022-12-25T16:17:05.783Z,79.25
2022-12-25T16:19:32.700Z,79.03
2022-12-25T16:21:59.295Z,78.02
2022-12-25T16:24:25.976Z,77.59
2022-12-25T16:26:52.576Z,76.43
2022-12-25T16:29:19.228Z,76.18
2022-12-25T16:31:45.831Z,76.12
2022-12-25T16:34:12.605Z,75.34
2022-12-25T16:36:39.269Z,75.13
2022-12-25T16:39:06.829Z,74.55
2022-12-25T16:41:33.508Z,73.76
2022-12-25T16:44:04.830Z,74.16
2022-12-25T16:46:31.404Z,73.85
2022-12-25T16:48:57.999Z,73.84
2022-12-25T16:51:24.675Z,73.78
2022-12-25T16:53:51.234Z,74.13
2022-12-25T16:56:20.676Z,74.18
2022-12-25T16:58:47.864Z,73.68
2022-12-25T17:01:18.055Z,73.25
2022-12-25T17:03:45.450Z,73.27
2022-12-25T17:06:17.923Z,73.42
2022-12-25T17:08:44.732Z,72.43
2022-12-25T17:11:12.274Z,72.71
2022-12-25T17:13:39.412Z,72.79
2022-12-25T17:16:22.949Z,72.42
2022-12-25T17:18:56.967Z,72.77
2022-12-25T17:21:24.863Z,72.72
2022-12-25T17:23:55.326Z,72.81
2022-12-25T17:26:24.857Z,72.61
2022-12-25T17:28:51.843Z,73.12
2022-12-25T17:31:18.946Z,72.68
2022-12-25T17:33:45.968Z,73.00
2022-12-25T17:36:16.537Z,72.51
2022-12-25T17:38:43.980Z,72.85
2022-12-25T17:41:12.913Z,72.59
2022-12-25T17:43:45.640Z,73.00
2022-12-25T17:46:15.883Z,72.75
2022-12-25T17:48:43.124Z,73.21
2022-12-25T17:51:12.387Z,73.08
2022-12-25T17:53:41.546Z,72.82
2022-12-25T17:56:09.918Z,73.38
2022-12-25T17:58:37.635Z,72.86
2022-12-25T18:01:14.329Z,72.33
2022-12-25T18:03:41.082Z,72.45
2022-12-25T18:06:13.312Z,72.41
2022-12-25T18:08:41.537Z,72.27
2022-12-25T18:11:15.208Z,72.45
2022-12-25T18:13:48.380Z,72.22
2022-12-25T18:16:16.007Z,72.22
2022-12-25T18:18:51.178Z,71.94
2022-12-25T18:21:19.240Z,72.27
2022-12-25T18:23:46.455Z,72.35
2022-12-25T18:26:13.621Z,72.19
2022-12-25T18:28:42.576Z,72.25
2022-12-25T18:31:18.023Z,72.11
2022-12-25T18:33:45.072Z,72.14
2022-12-25T18:36:16.825Z,72.18
2022-12-25T18:38:43.556Z,71.28
2022-12-25T18:41:10.847Z,70.85
2022-12-25T18:43:52.320Z,70.93
2022-12-25T18:46:24.791Z,70.91
2022-12-25T18:48:52.147Z,71.03
2022-12-25T18:51:18.895Z,71.52
2022-12-25T18:53:45.697Z,71.23
2022-12-25T18:56:15.628Z,70.59
2022-12-25T18:58:43.232Z,70.97
2022-12-25T19:01:14.603Z,70.57
2022-12-25T19:03:41.537Z,70.59
2022-12-25T19:06:08.264Z,70.99
2022-12-25T19:08:35.108Z,70.14
2022-12-25T19:11:06.573Z,69.50
2022-12-25T19:13:33.179Z,70.06
2022-12-25T19:15:59.914Z,70.11
2022-12-25T19:18:26.525Z,69.58
2022-12-25T19:20:53.090Z,70.03
2022-12-25T19:23:19.668Z,69.53
2022-12-25T19:25:46.232Z,69.31
2022-12-25T19:28:12.790Z,69.75
2022-12-25T19:30:39.471Z,69.71
2022-12-25T19:33:07.400Z,69.41
2022-12-25T19:35:39.919Z,69.43
2022-12-25T19:38:06.520Z,69.62
2022-12-25T19:40:37.443Z,69.33
2022-12-25T19:43:04.186Z,69.12
2022-12-25T19:45:30.894Z,68.83
2022-12-25T19:47:58.300Z,69.22
2022-12-25T19:50:30.738Z,68.91
2022-12-25T19:52:57.302Z,68.66
2022-12-25T19:55:23.956Z,68.72
2022-12-25T19:57:50.533Z,69.16
2022-12-25T20:00:17.507Z,69.14
2022-12-25T20:02:44.145Z,68.79
2022-12-25T20:05:10.815Z,69.00
2022-12-25T20:07:37.381Z,68.59
2022-12-25T20:10:04.116Z,69.10
2022-12-25T20:12:30.669Z,68.43
2022-12-25T20:14:57.267Z,68.73
2022-12-25T20:17:23.844Z,68.65
2022-12-25T20:19:50.414Z,68.54
2022-12-25T20:22:17.207Z,69.06
2022-12-25T20:24:43.877Z,68.80
2022-12-25T20:27:10.509Z,69.14
2022-12-25T20:29:37.092Z,69.23
2022-12-25T20:32:03.798Z,69.04
2022-12-25T20:34:30.455Z,68.55
2022-12-25T20:36:57.046Z,68.69
2022-12-25T20:39:23.600Z,68.21
2022-12-25T20:41:50.293Z,68.31
2022-12-25T20:44:17.025Z,68.61
2022-12-25T20:46:43.951Z,68.50
2022-12-25T20:49:10.810Z,67.91
2022-12-25T20:51:37.552Z,68.22
2022-12-25T20:54:09.450Z,68.45
2022-12-25T20:56:36.875Z,68.20
2022-12-25T20:59:03.557Z,67.79
2022-12-25T21:01:31.792Z,67.94
2022-12-25T21:03:59.420Z,68.00
2022-12-25T21:06:26.543Z,67.12
2022-12-25T21:08:53.369Z,67.43
2022-12-25T21:11:21.566Z,67.25
2022-12-25T21:13:49.049Z,67.41
2022-12-25T21:16:22.364Z,67.93
2022-12-25T21:18:51.117Z,67.28
2022-12-25T21:21:18.025Z,67.70
2022-12-25T21:23:45.905Z,67.73
2022-12-25T21:26:19.969Z,67.44
2022-12-25T21:28:51.263Z,68.17
2022-12-25T21:31:19.093Z,68.43
2022-12-25T21:33:52.389Z,68.88
2022-12-25T21:36:22.096Z,68.28
2022-12-25T21:38:54.010Z,68.37
2022-12-25T21:41:20.765Z,68.09
2022-12-25T21:43:47.431Z,68.49
2022-12-25T21:46:14.758Z,68.01
2022-12-25T21:48:42.340Z,68.51
2022-12-25T21:51:30.897Z,68.71
2022-12-25T21:53:58.096Z,69.37
2022-12-25T21:56:25.609Z,69.81
2022-12-25T21:58:52.274Z,68.95
2022-12-25T22:01:18.889Z,69.03
2022-12-25T22:03:46.292Z,69.27
2022-12-25T22:06:31.296Z,68.87
2022-12-25T22:08:57.980Z,69.08
2022-12-25T22:11:44.176Z,69.37
2022-12-25T22:14:52.778Z,68.90
2022-12-25T22:17:50.544Z,68.30
2022-12-25T22:20:23.735Z,68.73
2022-12-25T22:22:50.709Z,68.44
2022-12-25T22:25:18.648Z,68.64
2022-12-25T22:27:46.923Z,68.67
2022-12-25T22:30:17.312Z,68.05
2022-12-25T22:32:44.471Z,68.00
2022-12-25T22:35:14.820Z,68.37
2022-12-25T22:37:42.658Z,68.23
2022-12-25T22:40:13.104Z,68.40
2022-12-25T22:42:39.810Z,68.23
2022-12-25T22:45:07.066Z,68.38
2022-12-25T22:47:33.623Z,67.64
2022-12-25T22:50:00.473Z,68.22
2022-12-25T22:52:27.065Z,67.94
2022-12-25T22:54:53.646Z,67.77
2022-12-25T22:57:20.199Z,67.92
2022-12-25T22:59:46.727Z,68.51
2022-12-25T23:02:13.400Z,68.52
2022-12-25T23:04:40.068Z,67.96
2022-12-25T23:07:07.092Z,67.98
2022-12-25T23:09:34.346Z,68.45
2022-12-25T23:12:00.985Z,68.63
2022-12-25T23:14:39.823Z,68.29
2022-12-25T23:17:28.967Z,68.27
2022-12-25T23:20:15.047Z,68.47
2022-12-25T23:23:00.975Z,68.39
2022-12-25T23:25:46.378Z,68.46
2022-12-25T23:28:13.160Z,68.71
2022-12-25T23:30:39.726Z,68.96
2022-12-25T23:33:07.424Z,68.39
2022-12-25T23:35:34.070Z,68.27
2022-12-25T23:38:00.707Z,68.77
2022-12-25T23:40:27.253Z,68.76
2022-12-25T23:42:53.823Z,68.63
2022-12-25T23:45:20.366Z,68.53
2022-12-25T23:47:46.962Z,68.40
2022-12-25T23:50:13.503Z,68.91
2022-12-25T23:52:40.159Z,68.18
2022-12-25T23:55:07.616Z,68.59
2022-12-25T23:57:34.185Z,68.65
